FAWB/PRY METAR and TAF weather

Enter ICAO airport designator
Station Type Date Time Source
FAWB METAR 2020/11/28 20:00 UTC NOAA

FAWB 282000Z AUTO 17002KT //// // ////// 20/18 Q1019


Station Type Date Time Source
FAWB Decoded METAR 2020/11/28 20:00 UTC NOAA

Wonderboom / Pretoria, South Africa (FAWB) 25-39S 028-13E
Nov 28, 2020 - 03:00 PM EST / 2020.11.28 2000 UTC
Wind: from the S (170 degrees) at 2 MPH (2 KT):0
Temperature: 68 F (20 C)
Dew Point: 64 F (18 C)
Relative Humidity: 88%
Pressure (altimeter): 30.09 in. Hg (1019 hPa)
ob: FAWB 282000Z AUTO 17002KT //// // ////// 20/18 Q1019
cycle: 20

Station Type Date Time Source
FAWB TAF 2019/01/10 10:00 UTC NOAA

TAF FAWB 101000Z 1010/1018 30007KT CAVOK
BECMG 1014/1016 SCT035 PROB30
TEMPO 1016/1018 -TSRA FEW040CB TX31/1013Z TN26/1018Z

Example: see airport list